Aeroporto :
LOGIN :

Iscrizione | Disclaimer

   EN    FR    IT 

 










Sommario :    VFR   VFR Marginale   IFR   IFR Intensivo   IFR Molto Intensivo
Visibilità : 
Base nubi : 
>= 8 km
>= 3000ft
5 / 8 km
1000 / 3000 ft
1500m / 5 km
500 / 1000 ft
800 / 1500m
200 / 500 ft
< 800m
< 200 ft
Simboli :   Temporali  Nebbia  Neve Forte  Precipitazioni Forti  Vento > 20 kt
SIGMETs :   Varie  Temporali  Ghiacco  Turbolenza  Onda orograficha  Ceneri Vulcaniche






- Altitudine del aeroporto : 330 ft
- Codice IATA : LVA


LFOV - Laval-Entrammes

ULTIMO METAR :
  • 300000Z AUTO 30007KT 9999 BKN039 12/11 Q1012

METARs OBSOLETI :
  • 292330Z AUTO 30007KT CAVOK 12/11 Q1012
  • 292300Z AUTO 31007KT 270V340 CAVOK 12/11 Q1012
  • 292230Z AUTO 31006KT 280V350 9999 FEW045 12/11 Q1012
  • 292200Z AUTO 28005KT 250V320 9999 FEW013 SCT041 13/11 Q1012
  • 292130Z AUTO 33007KT 290V360 9999 FEW015 OVC037 14/12 Q1012
  • 292100Z AUTO 30010KT 260V330 9999 OVC033 14/12 Q1012
  • 292030Z AUTO 31008G20KT 270V340 9999 FEW017 BKN026 OVC031 15/13 Q1012
  • 292000Z AUTO 32010KT 9999 BKN017/// OVC025/// ///TCU 15/13 Q1012
  • 291930Z AUTO 32007KT 280V350 9999 FEW012/// BKN022/// BKN031/// ///TCU 15/14 Q1011

TAF N/A



MetMap, La meteo Aeronautica in un colpo d'occhio ! - Copyright ORBIFLY Dicembre 2007 - Disclaimer

ORBIFLY MET'MAP TEAM :

Programmazione e sviluppo : Alexandra Zaïnal
Concezione : Baudouin d'Aumeries
Supporto tecnico e logistico : Manuel Goepfert
Aiuto : Marc-Olivier Méhu
Aiuto per la traduzione : Arnaldo La Scala




FONTI E CREDITI :

   NOAA